sensor_id;sensor_type;location;lat;lon;timestamp;P1;durP1;ratioP1;P2;durP2;ratioP2
1995;SDS011;38556;47.068;15.408;2023-11-22T00:00:33;38.03;;;35.22;;
1995;SDS011;38556;47.068;15.408;2023-11-22T00:03:00;37.17;;;34.38;;
1995;SDS011;38556;47.068;15.408;2023-11-22T00:05:28;39.20;;;36.20;;
1995;SDS011;38556;47.068;15.408;2023-11-22T00:07:55;36.50;;;33.78;;
1995;SDS011;38556;47.068;15.408;2023-11-22T00:10:23;36.65;;;34.05;;
1995;SDS011;38556;47.068;15.408;2023-11-22T00:12:51;37.40;;;34.67;;
1995;SDS011;38556;47.068;15.408;2023-11-22T00:15:18;35.88;;;33.40;;
1995;SDS011;38556;47.068;15.408;2023-11-22T00:17:47;36.67;;;34.08;;
1995;SDS011;38556;47.068;15.408;2023-11-22T00:20:14;35.58;;;33.05;;
1995;SDS011;38556;47.068;15.408;2023-11-22T00:22:42;35.83;;;33.13;;
1995;SDS011;38556;47.068;15.408;2023-11-22T00:25:11;37.35;;;34.63;;
1995;SDS011;38556;47.068;15.408;2023-11-22T00:27:39;37.20;;;34.40;;
1995;SDS011;38556;47.068;15.408;2023-11-22T00:30:07;36.40;;;33.70;;
1995;SDS011;38556;47.068;15.408;2023-11-22T00:32:35;36.25;;;33.67;;
1995;SDS011;38556;47.068;15.408;2023-11-22T00:35:04;36.47;;;33.90;;
1995;SDS011;38556;47.068;15.408;2023-11-22T00:37:33;36.10;;;33.45;;
1995;SDS011;38556;47.068;15.408;2023-11-22T00:40:00;35.90;;;33.38;;
1995;SDS011;38556;47.068;15.408;2023-11-22T00:42:36;36.00;;;33.20;;
1995;SDS011;38556;47.068;15.408;2023-11-22T00:45:05;37.15;;;34.45;;
1995;SDS011;38556;47.068;15.408;2023-11-22T00:47:33;35.72;;;33.20;;
1995;SDS011;38556;47.068;15.408;2023-11-22T00:50:01;36.40;;;33.50;;
1995;SDS011;38556;47.068;15.408;2023-11-22T00:52:31;36.70;;;34.20;;
1995;SDS011;38556;47.068;15.408;2023-11-22T00:54:58;36.78;;;34.28;;
1995;SDS011;38556;47.068;15.408;2023-11-22T00:57:25;37.55;;;34.70;;
1995;SDS011;38556;47.068;15.408;2023-11-22T00:59:55;35.95;;;33.42;;
1995;SDS011;38556;47.068;15.408;2023-11-22T01:02:23;36.15;;;33.65;;
1995;SDS011;38556;47.068;15.408;2023-11-22T01:04:50;35.88;;;33.38;;
1995;SDS011;38556;47.068;15.408;2023-11-22T01:07:18;36.88;;;34.22;;
1995;SDS011;38556;47.068;15.408;2023-11-22T01:09:47;36.53;;;34.03;;
1995;SDS011;38556;47.068;15.408;2023-11-22T01:12:14;37.05;;;34.45;;
1995;SDS011;38556;47.068;15.408;2023-11-22T01:14:41;38.10;;;35.45;;
1995;SDS011;38556;47.068;15.408;2023-11-22T01:17:08;36.80;;;34.22;;
1995;SDS011;38556;47.068;15.408;2023-11-22T01:19:35;37.13;;;34.42;;
1995;SDS011;38556;47.068;15.408;2023-11-22T01:22:03;35.80;;;33.33;;
1995;SDS011;38556;47.068;15.408;2023-11-22T01:24:31;35.50;;;32.90;;
1995;SDS011;38556;47.068;15.408;2023-11-22T01:27:00;36.30;;;33.60;;
1995;SDS011;38556;47.068;15.408;2023-11-22T01:29:27;36.50;;;33.70;;
1995;SDS011;38556;47.068;15.408;2023-11-22T01:31:55;34.30;;;31.90;;
1995;SDS011;38556;47.068;15.408;2023-11-22T01:34:24;35.03;;;32.53;;
1995;SDS011;38556;47.068;15.408;2023-11-22T01:36:51;36.45;;;33.65;;
1995;SDS011;38556;47.068;15.408;2023-11-22T01:39:19;36.97;;;34.33;;
1995;SDS011;38556;47.068;15.408;2023-11-22T01:41:46;36.10;;;33.50;;
1995;SDS011;38556;47.068;15.408;2023-11-22T01:44:16;36.95;;;34.15;;
1995;SDS011;38556;47.068;15.408;2023-11-22T01:46:45;36.50;;;33.80;;
1995;SDS011;38556;47.068;15.408;2023-11-22T01:49:12;36.15;;;33.65;;
1995;SDS011;38556;47.068;15.408;2023-11-22T01:51:40;36.40;;;33.90;;
1995;SDS011;38556;47.068;15.408;2023-11-22T01:54:08;35.83;;;33.22;;
1995;SDS011;38556;47.068;15.408;2023-11-22T01:56:37;36.47;;;33.88;;
1995;SDS011;38556;47.068;15.408;2023-11-22T01:59:06;35.83;;;32.97;;
1995;SDS011;38556;47.068;15.408;2023-11-22T02:01:35;35.40;;;32.67;;
1995;SDS011;38556;47.068;15.408;2023-11-22T02:04:03;36.00;;;33.33;;
1995;SDS011;38556;47.068;15.408;2023-11-22T02:06:32;37.33;;;34.63;;
1995;SDS011;38556;47.068;15.408;2023-11-22T02:09:00;38.28;;;35.08;;
1995;SDS011;38556;47.068;15.408;2023-11-22T02:11:28;37.33;;;34.63;;
1995;SDS011;38556;47.068;15.408;2023-11-22T02:13:55;36.75;;;33.95;;
1995;SDS011;38556;47.068;15.408;2023-11-22T02:16:23;38.83;;;35.63;;
1995;SDS011;38556;47.068;15.408;2023-11-22T02:18:52;40.33;;;37.33;;
1995;SDS011;38556;47.068;15.408;2023-11-22T02:21:20;43.00;;;39.80;;
1995;SDS011;38556;47.068;15.408;2023-11-22T02:23:49;44.92;;;41.35;;
1995;SDS011;38556;47.068;15.408;2023-11-22T02:26:16;44.47;;;41.22;;
1995;SDS011;38556;47.068;15.408;2023-11-22T02:28:44;45.53;;;42.03;;
1995;SDS011;38556;47.068;15.408;2023-11-22T02:31:11;46.42;;;42.83;;
1995;SDS011;38556;47.068;15.408;2023-11-22T02:33:39;44.88;;;41.17;;
1995;SDS011;38556;47.068;15.408;2023-11-22T02:36:07;46.35;;;42.67;;
1995;SDS011;38556;47.068;15.408;2023-11-22T02:38:37;46.67;;;43.10;;
1995;SDS011;38556;47.068;15.408;2023-11-22T02:41:07;47.55;;;43.88;;
1995;SDS011;38556;47.068;15.408;2023-11-22T02:43:35;48.38;;;44.40;;
1995;SDS011;38556;47.068;15.408;2023-11-22T02:46:02;46.10;;;42.45;;
1995;SDS011;38556;47.068;15.408;2023-11-22T02:48:30;47.10;;;43.42;;
1995;SDS011;38556;47.068;15.408;2023-11-22T02:50:58;45.58;;;41.88;;
1995;SDS011;38556;47.068;15.408;2023-11-22T02:53:25;46.67;;;42.88;;
1995;SDS011;38556;47.068;15.408;2023-11-22T02:55:58;46.72;;;43.00;;
1995;SDS011;38556;47.068;15.408;2023-11-22T02:58:27;45.63;;;42.10;;
1995;SDS011;38556;47.068;15.408;2023-11-22T03:00:55;46.75;;;43.20;;
1995;SDS011;38556;47.068;15.408;2023-11-22T03:03:22;44.70;;;41.30;;
1995;SDS011;38556;47.068;15.408;2023-11-22T03:05:50;42.65;;;39.28;;
1995;SDS011;38556;47.068;15.408;2023-11-22T03:08:17;44.70;;;41.35;;
1995;SDS011;38556;47.068;15.408;2023-11-22T03:10:45;47.17;;;43.85;;
1995;SDS011;38556;47.068;15.408;2023-11-22T03:13:12;46.60;;;43.50;;
1995;SDS011;38556;47.068;15.408;2023-11-22T03:15:41;46.58;;;43.58;;
1995;SDS011;38556;47.068;15.408;2023-11-22T03:18:09;48.70;;;45.45;;
1995;SDS011;38556;47.068;15.408;2023-11-22T03:20:36;50.70;;;47.40;;
1995;SDS011;38556;47.068;15.408;2023-11-22T03:23:04;51.15;;;47.75;;
1995;SDS011;38556;47.068;15.408;2023-11-22T03:25:32;45.95;;;42.92;;
1995;SDS011;38556;47.068;15.408;2023-11-22T03:27:59;44.67;;;41.65;;
1995;SDS011;38556;47.068;15.408;2023-11-22T03:30:26;43.83;;;40.53;;
1995;SDS011;38556;47.068;15.408;2023-11-22T03:32:55;43.67;;;40.58;;
1995;SDS011;38556;47.068;15.408;2023-11-22T03:35:22;44.10;;;41.30;;
1995;SDS011;38556;47.068;15.408;2023-11-22T03:37:50;44.70;;;41.70;;
1995;SDS011;38556;47.068;15.408;2023-11-22T03:40:17;43.33;;;40.53;;
1995;SDS011;38556;47.068;15.408;2023-11-22T03:42:45;45.58;;;42.78;;
1995;SDS011;38556;47.068;15.408;2023-11-22T03:45:13;44.95;;;42.05;;
1995;SDS011;38556;47.068;15.408;2023-11-22T03:47:40;45.20;;;42.20;;
1995;SDS011;38556;47.068;15.408;2023-11-22T03:50:09;46.00;;;43.30;;
1995;SDS011;38556;47.068;15.408;2023-11-22T03:52:36;44.50;;;41.72;;
1995;SDS011;38556;47.068;15.408;2023-11-22T03:55:04;44.72;;;41.97;;
1995;SDS011;38556;47.068;15.408;2023-11-22T03:57:32;45.03;;;42.13;;
1995;SDS011;38556;47.068;15.408;2023-11-22T03:59:59;43.80;;;40.90;;
1995;SDS011;38556;47.068;15.408;2023-11-22T04:02:27;42.72;;;40.03;;
1995;SDS011;38556;47.068;15.408;2023-11-22T04:04:54;41.45;;;38.55;;
1995;SDS011;38556;47.068;15.408;2023-11-22T04:07:24;40.85;;;38.03;;
1995;SDS011;38556;47.068;15.408;2023-11-22T04:09:51;41.90;;;38.90;;
1995;SDS011;38556;47.068;15.408;2023-11-22T04:12:19;41.72;;;38.92;;
1995;SDS011;38556;47.068;15.408;2023-11-22T04:14:46;42.40;;;39.60;;
1995;SDS011;38556;47.068;15.408;2023-11-22T04:17:14;41.08;;;38.28;;
1995;SDS011;38556;47.068;15.408;2023-11-22T04:19:41;42.22;;;39.30;;
1995;SDS011;38556;47.068;15.408;2023-11-22T04:22:10;42.63;;;39.50;;
1995;SDS011;38556;47.068;15.408;2023-11-22T04:24:38;41.53;;;38.92;;
1995;SDS011;38556;47.068;15.408;2023-11-22T04:27:06;40.00;;;37.58;;
1995;SDS011;38556;47.068;15.408;2023-11-22T04:29:33;42.33;;;39.63;;
1995;SDS011;38556;47.068;15.408;2023-11-22T04:32:01;40.75;;;38.13;;
1995;SDS011;38556;47.068;15.408;2023-11-22T04:34:28;39.47;;;36.88;;
1995;SDS011;38556;47.068;15.408;2023-11-22T04:36:55;40.30;;;37.50;;
1995;SDS011;38556;47.068;15.408;2023-11-22T04:39:23;42.08;;;39.28;;
1995;SDS011;38556;47.068;15.408;2023-11-22T04:41:51;44.00;;;40.80;;
1995;SDS011;38556;47.068;15.408;2023-11-22T04:44:19;41.85;;;38.95;;
1995;SDS011;38556;47.068;15.408;2023-11-22T04:46:46;42.05;;;39.25;;
1995;SDS011;38556;47.068;15.408;2023-11-22T04:49:14;43.28;;;39.92;;
1995;SDS011;38556;47.068;15.408;2023-11-22T04:51:41;41.22;;;38.63;;
1995;SDS011;38556;47.068;15.408;2023-11-22T04:54:10;42.05;;;39.33;;
1995;SDS011;38556;47.068;15.408;2023-11-22T04:56:38;41.33;;;38.63;;
1995;SDS011;38556;47.068;15.408;2023-11-22T04:59:06;43.70;;;40.80;;
1995;SDS011;38556;47.068;15.408;2023-11-22T05:01:34;54.92;;;51.47;;
1995;SDS011;38556;47.068;15.408;2023-11-22T05:04:01;57.25;;;53.45;;
1995;SDS011;38556;47.068;15.408;2023-11-22T05:06:29;48.38;;;45.33;;
1995;SDS011;38556;47.068;15.408;2023-11-22T05:08:56;53.30;;;50.10;;
1995;SDS011;38556;47.068;15.408;2023-11-22T05:11:23;54.80;;;51.40;;
1995;SDS011;38556;47.068;15.408;2023-11-22T05:13:51;54.00;;;50.50;;
1995;SDS011;38556;47.068;15.408;2023-11-22T05:16:20;50.42;;;47.10;;
1995;SDS011;38556;47.068;15.408;2023-11-22T05:18:49;50.40;;;47.30;;
1995;SDS011;38556;47.068;15.408;2023-11-22T05:21:16;51.35;;;48.15;;
1995;SDS011;38556;47.068;15.408;2023-11-22T05:23:44;55.53;;;52.17;;
1995;SDS011;38556;47.068;15.408;2023-11-22T05:26:11;51.92;;;48.53;;
1995;SDS011;38556;47.068;15.408;2023-11-22T05:28:39;57.20;;;53.50;;
1995;SDS011;38556;47.068;15.408;2023-11-22T05:31:06;62.28;;;58.35;;
1995;SDS011;38556;47.068;15.408;2023-11-22T05:33:35;52.70;;;49.50;;
1995;SDS011;38556;47.068;15.408;2023-11-22T05:36:02;54.78;;;51.25;;
1995;SDS011;38556;47.068;15.408;2023-11-22T05:38:30;58.05;;;54.13;;
1995;SDS011;38556;47.068;15.408;2023-11-22T05:40:59;55.13;;;51.90;;
1995;SDS011;38556;47.068;15.408;2023-11-22T05:43:27;53.17;;;49.70;;
1995;SDS011;38556;47.068;15.408;2023-11-22T05:45:54;53.45;;;50.33;;
1995;SDS011;38556;47.068;15.408;2023-11-22T05:48:22;56.60;;;53.20;;
1995;SDS011;38556;47.068;15.408;2023-11-22T05:50:50;63.65;;;59.95;;
1995;SDS011;38556;47.068;15.408;2023-11-22T05:53:18;63.63;;;60.05;;
1995;SDS011;38556;47.068;15.408;2023-11-22T05:55:46;66.15;;;62.33;;
1995;SDS011;38556;47.068;15.408;2023-11-22T05:58:14;66.88;;;63.08;;
1995;SDS011;38556;47.068;15.408;2023-11-22T06:00:42;62.90;;;59.03;;
1995;SDS011;38556;47.068;15.408;2023-11-22T06:03:10;61.42;;;57.60;;
1995;SDS011;38556;47.068;15.408;2023-11-22T06:05:38;60.70;;;57.22;;
1995;SDS011;38556;47.068;15.408;2023-11-22T06:08:07;59.90;;;56.30;;
1995;SDS011;38556;47.068;15.408;2023-11-22T06:10:35;56.83;;;53.03;;
1995;SDS011;38556;47.068;15.408;2023-11-22T06:13:04;60.90;;;57.20;;
1995;SDS011;38556;47.068;15.408;2023-11-22T06:15:31;56.88;;;52.85;;
1995;SDS011;38556;47.068;15.408;2023-11-22T06:17:58;56.35;;;52.03;;
1995;SDS011;38556;47.068;15.408;2023-11-22T06:20:25;65.60;;;59.83;;
1995;SDS011;38556;47.068;15.408;2023-11-22T06:22:53;92.57;;;83.70;;
1995;SDS011;38556;47.068;15.408;2023-11-22T06:25:22;89.93;;;81.72;;
1995;SDS011;38556;47.068;15.408;2023-11-22T06:27:49;86.10;;;78.47;;
1995;SDS011;38556;47.068;15.408;2023-11-22T06:30:17;84.03;;;76.22;;
1995;SDS011;38556;47.068;15.408;2023-11-22T06:32:44;82.40;;;74.93;;
1995;SDS011;38556;47.068;15.408;2023-11-22T06:35:12;71.20;;;64.85;;
1995;SDS011;38556;47.068;15.408;2023-11-22T06:37:40;71.00;;;65.40;;
1995;SDS011;38556;47.068;15.408;2023-11-22T06:40:07;60.13;;;55.17;;
1995;SDS011;38556;47.068;15.408;2023-11-22T06:42:39;55.55;;;51.70;;
1995;SDS011;38556;47.068;15.408;2023-11-22T06:45:07;56.20;;;52.70;;
1995;SDS011;38556;47.068;15.408;2023-11-22T06:47:38;51.45;;;47.95;;
1995;SDS011;38556;47.068;15.408;2023-11-22T06:50:05;53.53;;;50.00;;
1995;SDS011;38556;47.068;15.408;2023-11-22T06:52:34;58.20;;;54.15;;
1995;SDS011;38556;47.068;15.408;2023-11-22T06:55:02;63.53;;;58.92;;
1995;SDS011;38556;47.068;15.408;2023-11-22T06:57:29;54.28;;;50.30;;
1995;SDS011;38556;47.068;15.408;2023-11-22T06:59:59;52.15;;;48.42;;
1995;SDS011;38556;47.068;15.408;2023-11-22T07:02:26;50.95;;;47.50;;
1995;SDS011;38556;47.068;15.408;2023-11-22T07:04:54;51.75;;;48.15;;
1995;SDS011;38556;47.068;15.408;2023-11-22T07:07:24;55.63;;;51.63;;
1995;SDS011;38556;47.068;15.408;2023-11-22T07:09:52;61.80;;;57.72;;
1995;SDS011;38556;47.068;15.408;2023-11-22T07:12:19;62.35;;;57.35;;
1995;SDS011;38556;47.068;15.408;2023-11-22T07:14:48;61.03;;;56.38;;
1995;SDS011;38556;47.068;15.408;2023-11-22T07:17:16;64.55;;;58.80;;
1995;SDS011;38556;47.068;15.408;2023-11-22T07:19:44;62.92;;;58.03;;
1995;SDS011;38556;47.068;15.408;2023-11-22T07:22:12;61.53;;;56.55;;
1995;SDS011;38556;47.068;15.408;2023-11-22T07:24:43;69.10;;;63.63;;
1995;SDS011;38556;47.068;15.408;2023-11-22T07:27:10;63.50;;;58.35;;
1995;SDS011;38556;47.068;15.408;2023-11-22T07:29:39;61.92;;;57.08;;
1995;SDS011;38556;47.068;15.408;2023-11-22T07:32:06;61.55;;;56.53;;
1995;SDS011;38556;47.068;15.408;2023-11-22T07:34:36;60.75;;;55.97;;
1995;SDS011;38556;47.068;15.408;2023-11-22T07:37:04;60.38;;;55.75;;
1995;SDS011;38556;47.068;15.408;2023-11-22T07:39:33;57.97;;;53.25;;
1995;SDS011;38556;47.068;15.408;2023-11-22T07:42:01;56.80;;;51.92;;
1995;SDS011;38556;47.068;15.408;2023-11-22T07:44:29;56.40;;;52.22;;
1995;SDS011;38556;47.068;15.408;2023-11-22T07:46:58;55.65;;;51.72;;
1995;SDS011;38556;47.068;15.408;2023-11-22T07:49:26;54.15;;;50.13;;
1995;SDS011;38556;47.068;15.408;2023-11-22T07:51:55;60.42;;;55.83;;
1995;SDS011;38556;47.068;15.408;2023-11-22T07:54:23;60.15;;;55.90;;
1995;SDS011;38556;47.068;15.408;2023-11-22T07:56:50;59.20;;;55.20;;
1995;SDS011;38556;47.068;15.408;2023-11-22T07:59:18;60.00;;;55.67;;
1995;SDS011;38556;47.068;15.408;2023-11-22T08:01:46;61.13;;;56.20;;
1995;SDS011;38556;47.068;15.408;2023-11-22T08:04:14;60.92;;;56.90;;
1995;SDS011;38556;47.068;15.408;2023-11-22T08:06:42;61.60;;;57.30;;
1995;SDS011;38556;47.068;15.408;2023-11-22T08:09:11;60.92;;;57.00;;
1995;SDS011;38556;47.068;15.408;2023-11-22T08:11:38;62.55;;;57.10;;
1995;SDS011;38556;47.068;15.408;2023-11-22T08:14:06;63.92;;;59.65;;
1995;SDS011;38556;47.068;15.408;2023-11-22T08:16:34;60.50;;;56.30;;
1995;SDS011;38556;47.068;15.408;2023-11-22T08:19:04;59.67;;;55.55;;
1995;SDS011;38556;47.068;15.408;2023-11-22T08:21:33;62.05;;;57.95;;
1995;SDS011;38556;47.068;15.408;2023-11-22T08:24:00;66.78;;;61.53;;
1995;SDS011;38556;47.068;15.408;2023-11-22T08:26:29;67.10;;;62.28;;
1995;SDS011;38556;47.068;15.408;2023-11-22T08:28:57;61.85;;;57.33;;
1995;SDS011;38556;47.068;15.408;2023-11-22T08:31:25;64.85;;;60.10;;
1995;SDS011;38556;47.068;15.408;2023-11-22T08:33:52;62.30;;;58.10;;
1995;SDS011;38556;47.068;15.408;2023-11-22T08:36:19;56.10;;;52.00;;
1995;SDS011;38556;47.068;15.408;2023-11-22T08:38:47;58.25;;;53.85;;
1995;SDS011;38556;47.068;15.408;2023-11-22T08:41:14;60.42;;;56.28;;
1995;SDS011;38556;47.068;15.408;2023-11-22T08:43:44;61.03;;;56.80;;
1995;SDS011;38556;47.068;15.408;2023-11-22T08:46:13;59.55;;;55.35;;
1995;SDS011;38556;47.068;15.408;2023-11-22T08:48:41;63.35;;;59.05;;
1995;SDS011;38556;47.068;15.408;2023-11-22T08:51:08;62.28;;;57.83;;
1995;SDS011;38556;47.068;15.408;2023-11-22T08:53:37;60.20;;;56.40;;
1995;SDS011;38556;47.068;15.408;2023-11-22T08:56:04;59.25;;;54.85;;
1995;SDS011;38556;47.068;15.408;2023-11-22T08:58:34;54.80;;;51.20;;
1995;SDS011;38556;47.068;15.408;2023-11-22T09:01:03;59.53;;;55.53;;
1995;SDS011;38556;47.068;15.408;2023-11-22T09:03:33;58.58;;;54.75;;
1995;SDS011;38556;47.068;15.408;2023-11-22T09:06:00;54.63;;;51.10;;
1995;SDS011;38556;47.068;15.408;2023-11-22T09:08:28;53.88;;;50.47;;
1995;SDS011;38556;47.068;15.408;2023-11-22T09:10:56;52.15;;;48.90;;
1995;SDS011;38556;47.068;15.408;2023-11-22T09:13:24;54.60;;;50.92;;
1995;SDS011;38556;47.068;15.408;2023-11-22T09:15:51;52.38;;;49.28;;
1995;SDS011;38556;47.068;15.408;2023-11-22T09:18:20;52.38;;;49.22;;
1995;SDS011;38556;47.068;15.408;2023-11-22T09:20:47;53.40;;;50.05;;
1995;SDS011;38556;47.068;15.408;2023-11-22T09:23:15;52.97;;;49.97;;
1995;SDS011;38556;47.068;15.408;2023-11-22T09:25:43;54.55;;;51.45;;
1995;SDS011;38556;47.068;15.408;2023-11-22T09:28:11;48.30;;;45.22;;
1995;SDS011;38556;47.068;15.408;2023-11-22T09:30:41;53.75;;;50.60;;
1995;SDS011;38556;47.068;15.408;2023-11-22T09:33:10;59.20;;;55.90;;
1995;SDS011;38556;47.068;15.408;2023-11-22T09:35:42;60.40;;;56.45;;
1995;SDS011;38556;47.068;15.408;2023-11-22T09:38:11;56.22;;;53.22;;
1995;SDS011;38556;47.068;15.408;2023-11-22T09:40:39;58.75;;;55.55;;
1995;SDS011;38556;47.068;15.408;2023-11-22T09:43:09;56.10;;;52.80;;
1995;SDS011;38556;47.068;15.408;2023-11-22T09:45:36;53.70;;;50.60;;
1995;SDS011;38556;47.068;15.408;2023-11-22T09:48:06;52.75;;;49.85;;
1995;SDS011;38556;47.068;15.408;2023-11-22T09:50:43;53.80;;;50.78;;
1995;SDS011;38556;47.068;15.408;2023-11-22T09:53:19;51.00;;;48.17;;
1995;SDS011;38556;47.068;15.408;2023-11-22T09:55:51;52.38;;;49.47;;
1995;SDS011;38556;47.068;15.408;2023-11-22T09:58:19;50.35;;;47.42;;
1995;SDS011;38556;47.068;15.408;2023-11-22T10:00:47;54.08;;;50.97;;
1995;SDS011;38556;47.068;15.408;2023-11-22T10:03:15;55.83;;;52.70;;
1995;SDS011;38556;47.068;15.408;2023-11-22T10:05:45;55.95;;;52.85;;
1995;SDS011;38556;47.068;15.408;2023-11-22T10:08:12;50.97;;;48.03;;
1995;SDS011;38556;47.068;15.408;2023-11-22T10:10:39;50.17;;;47.40;;
1995;SDS011;38556;47.068;15.408;2023-11-22T10:13:10;50.47;;;47.67;;
1995;SDS011;38556;47.068;15.408;2023-11-22T10:15:38;50.72;;;47.83;;
1995;SDS011;38556;47.068;15.408;2023-11-22T10:18:05;50.95;;;48.08;;
1995;SDS011;38556;47.068;15.408;2023-11-22T10:20:35;51.15;;;48.35;;
1995;SDS011;38556;47.068;15.408;2023-11-22T10:23:09;48.22;;;45.63;;
1995;SDS011;38556;47.068;15.408;2023-11-22T10:25:36;49.72;;;47.03;;
1995;SDS011;38556;47.068;15.408;2023-11-22T10:28:10;50.22;;;47.35;;
1995;SDS011;38556;47.068;15.408;2023-11-22T10:30:38;48.92;;;46.22;;
1995;SDS011;38556;47.068;15.408;2023-11-22T10:33:07;52.85;;;49.95;;
1995;SDS011;38556;47.068;15.408;2023-11-22T10:35:39;49.97;;;47.28;;
1995;SDS011;38556;47.068;15.408;2023-11-22T10:38:09;47.55;;;44.85;;
1995;SDS011;38556;47.068;15.408;2023-11-22T10:40:36;55.10;;;52.05;;
1995;SDS011;38556;47.068;15.408;2023-11-22T10:43:04;50.72;;;47.92;;
1995;SDS011;38556;47.068;15.408;2023-11-22T10:45:33;53.22;;;50.28;;
1995;SDS011;38556;47.068;15.408;2023-11-22T10:48:03;52.05;;;49.15;;
1995;SDS011;38556;47.068;15.408;2023-11-22T10:50:31;49.65;;;46.72;;
1995;SDS011;38556;47.068;15.408;2023-11-22T10:52:59;52.20;;;49.40;;
1995;SDS011;38556;47.068;15.408;2023-11-22T10:55:32;48.60;;;45.80;;
1995;SDS011;38556;47.068;15.408;2023-11-22T10:58:02;47.20;;;44.40;;
1995;SDS011;38556;47.068;15.408;2023-11-22T11:00:31;50.45;;;47.63;;
1995;SDS011;38556;47.068;15.408;2023-11-22T11:03:01;49.70;;;47.00;;
1995;SDS011;38556;47.068;15.408;2023-11-22T11:05:35;49.25;;;46.45;;
1995;SDS011;38556;47.068;15.408;2023-11-22T11:08:08;55.13;;;52.33;;
1995;SDS011;38556;47.068;15.408;2023-11-22T11:10:39;53.30;;;49.90;;
1995;SDS011;38556;47.068;15.408;2023-11-22T11:13:08;52.55;;;49.65;;
1995;SDS011;38556;47.068;15.408;2023-11-22T11:15:35;53.63;;;50.35;;
1995;SDS011;38556;47.068;15.408;2023-11-22T11:18:04;48.63;;;45.78;;
1995;SDS011;38556;47.068;15.408;2023-11-22T11:20:32;46.60;;;43.90;;
1995;SDS011;38556;47.068;15.408;2023-11-22T11:23:13;49.13;;;46.42;;
1995;SDS011;38556;47.068;15.408;2023-11-22T11:25:42;46.42;;;43.83;;
1995;SDS011;38556;47.068;15.408;2023-11-22T11:28:10;46.78;;;43.85;;
1995;SDS011;38556;47.068;15.408;2023-11-22T11:30:42;48.65;;;45.88;;
1995;SDS011;38556;47.068;15.408;2023-11-22T11:33:14;46.42;;;43.67;;
1995;SDS011;38556;47.068;15.408;2023-11-22T11:35:43;45.03;;;42.20;;
1995;SDS011;38556;47.068;15.408;2023-11-22T11:38:13;46.20;;;43.40;;
1995;SDS011;38556;47.068;15.408;2023-11-22T11:40:41;49.78;;;47.08;;
1995;SDS011;38556;47.068;15.408;2023-11-22T11:43:12;49.05;;;46.22;;
1995;SDS011;38556;47.068;15.408;2023-11-22T11:45:40;49.53;;;46.63;;
1995;SDS011;38556;47.068;15.408;2023-11-22T11:48:12;50.15;;;47.20;;
1995;SDS011;38556;47.068;15.408;2023-11-22T11:50:40;46.20;;;43.08;;
1995;SDS011;38556;47.068;15.408;2023-11-22T11:53:08;49.85;;;47.15;;
1995;SDS011;38556;47.068;15.408;2023-11-22T11:55:36;46.83;;;44.13;;
1995;SDS011;38556;47.068;15.408;2023-11-22T11:58:05;46.25;;;43.25;;
1995;SDS011;38556;47.068;15.408;2023-11-22T12:00:34;45.70;;;43.00;;
1995;SDS011;38556;47.068;15.408;2023-11-22T12:03:06;48.53;;;45.83;;
1995;SDS011;38556;47.068;15.408;2023-11-22T12:05:35;43.30;;;40.80;;
1995;SDS011;38556;47.068;15.408;2023-11-22T12:08:04;47.10;;;44.40;;
1995;SDS011;38556;47.068;15.408;2023-11-22T12:10:31;46.65;;;44.05;;
1995;SDS011;38556;47.068;15.408;2023-11-22T12:12:59;45.92;;;43.38;;
1995;SDS011;38556;47.068;15.408;2023-11-22T12:15:28;46.25;;;43.65;;
1995;SDS011;38556;47.068;15.408;2023-11-22T12:17:56;43.75;;;41.15;;
1995;SDS011;38556;47.068;15.408;2023-11-22T12:20:23;44.90;;;42.33;;
1995;SDS011;38556;47.068;15.408;2023-11-22T12:22:52;44.70;;;42.00;;
1995;SDS011;38556;47.068;15.408;2023-11-22T12:25:19;46.72;;;44.13;;
1995;SDS011;38556;47.068;15.408;2023-11-22T12:27:48;42.80;;;40.20;;
1995;SDS011;38556;47.068;15.408;2023-11-22T12:30:29;48.55;;;45.95;;
1995;SDS011;38556;47.068;15.408;2023-11-22T12:33:01;47.63;;;44.83;;
1995;SDS011;38556;47.068;15.408;2023-11-22T12:35:29;52.88;;;50.17;;
1995;SDS011;38556;47.068;15.408;2023-11-22T12:37:59;48.72;;;45.72;;
1995;SDS011;38556;47.068;15.408;2023-11-22T12:40:27;44.08;;;41.58;;
1995;SDS011;38556;47.068;15.408;2023-11-22T12:42:57;43.13;;;40.63;;
1995;SDS011;38556;47.068;15.408;2023-11-22T12:45:27;45.83;;;42.90;;
1995;SDS011;38556;47.068;15.408;2023-11-22T12:48:04;47.63;;;44.92;;
1995;SDS011;38556;47.068;15.408;2023-11-22T12:50:46;50.85;;;47.95;;
1995;SDS011;38556;47.068;15.408;2023-11-22T12:53:14;48.60;;;45.95;;
1995;SDS011;38556;47.068;15.408;2023-11-22T12:55:42;52.88;;;49.88;;
1995;SDS011;38556;47.068;15.408;2023-11-22T12:58:11;49.08;;;46.38;;
1995;SDS011;38556;47.068;15.408;2023-11-22T13:00:40;49.65;;;46.88;;
1995;SDS011;38556;47.068;15.408;2023-11-22T13:03:08;58.58;;;54.92;;
1995;SDS011;38556;47.068;15.408;2023-11-22T13:05:36;49.20;;;46.60;;
1995;SDS011;38556;47.068;15.408;2023-11-22T13:08:03;49.80;;;47.25;;
1995;SDS011;38556;47.068;15.408;2023-11-22T13:10:31;50.22;;;47.60;;
1995;SDS011;38556;47.068;15.408;2023-11-22T13:12:59;51.65;;;48.95;;
1995;SDS011;38556;47.068;15.408;2023-11-22T13:15:27;54.13;;;51.25;;
1995;SDS011;38556;47.068;15.408;2023-11-22T13:17:57;52.38;;;49.67;;
1995;SDS011;38556;47.068;15.408;2023-11-22T13:20:25;54.35;;;51.35;;
1995;SDS011;38556;47.068;15.408;2023-11-22T13:22:53;54.38;;;51.58;;
1995;SDS011;38556;47.068;15.408;2023-11-22T13:25:21;53.47;;;50.47;;
1995;SDS011;38556;47.068;15.408;2023-11-22T13:27:49;47.85;;;45.17;;
1995;SDS011;38556;47.068;15.408;2023-11-22T13:30:18;50.08;;;47.38;;
1995;SDS011;38556;47.068;15.408;2023-11-22T13:32:49;46.22;;;43.63;;
1995;SDS011;38556;47.068;15.408;2023-11-22T13:35:17;45.42;;;42.83;;
1995;SDS011;38556;47.068;15.408;2023-11-22T13:37:45;46.03;;;43.53;;
1995;SDS011;38556;47.068;15.408;2023-11-22T13:40:13;54.85;;;51.90;;
1995;SDS011;38556;47.068;15.408;2023-11-22T13:42:42;48.65;;;46.15;;
1995;SDS011;38556;47.068;15.408;2023-11-22T13:45:11;48.80;;;46.20;;
1995;SDS011;38556;47.068;15.408;2023-11-22T13:47:41;47.60;;;44.90;;
1995;SDS011;38556;47.068;15.408;2023-11-22T13:50:10;46.00;;;43.50;;
1995;SDS011;38556;47.068;15.408;2023-11-22T13:52:41;45.22;;;42.72;;
1995;SDS011;38556;47.068;15.408;2023-11-22T13:55:09;46.13;;;43.50;;
1995;SDS011;38556;47.068;15.408;2023-11-22T13:57:37;45.80;;;43.30;;
1995;SDS011;38556;47.068;15.408;2023-11-22T14:00:06;42.60;;;40.13;;
1995;SDS011;38556;47.068;15.408;2023-11-22T14:02:43;47.13;;;44.53;;
1995;SDS011;38556;47.068;15.408;2023-11-22T14:05:11;44.87;;;42.27;;
1995;SDS011;38556;47.068;15.408;2023-11-22T14:07:42;44.43;;;41.83;;
1995;SDS011;38556;47.068;15.408;2023-11-22T14:10:10;42.13;;;39.63;;
1995;SDS011;38556;47.068;15.408;2023-11-22T14:12:41;49.73;;;47.07;;
1995;SDS011;38556;47.068;15.408;2023-11-22T14:15:10;43.50;;;41.20;;
1995;SDS011;38556;47.068;15.408;2023-11-22T14:17:38;48.60;;;45.93;;
1995;SDS011;38556;47.068;15.408;2023-11-22T14:20:07;45.07;;;42.37;;
1995;SDS011;38556;47.068;15.408;2023-11-22T14:22:34;44.33;;;41.83;;
1995;SDS011;38556;47.068;15.408;2023-11-22T14:25:04;47.97;;;44.73;;
1995;SDS011;38556;47.068;15.408;2023-11-22T14:27:33;46.10;;;43.60;;